Dades meteomassalio
Diari Summary for Octubre 24, 2017 Units:  Metric    English   Both
« Previous Day
Next Day »
Diari Semanal Mensual Anual Personalitzat
  Maxima: Minima: Mijana:
Temperatura: -17.8 °C -15.6 °C -11.1 °C
Rosada: -17.8 °C -20.3 °C -18.4 °C
Humitat: Humidity % 18 % 44 %
Velocitat del vent: 0 km/h 0 km/h 2.7 km/h
Racha vent: 0 km/h - -
Vent:- - West
Pressio: 0 hPa 34693 hPa -
Pluja: 0 mm    
Historical Graphs
 
 
Tabular Data for Octubre 24, 2017
Time Temperature Dew Point Pressure Wind Wind Speed Wind Gust Humidity Rainfall Rate (Hourly) solar Conditions
-17.8 °C -17.8 °C 0 hPa Calm     Humidity % 0 mm SolarRadiationWatts/m^2 W/m2 Conditions
00:04 -14.1 °C -18.7 °C 34797.9 hPa Calm     55 % 0 mm 0.0 W/m2 CLR
00:09 -14.1 °C -19.2 °C 34797.9 hPa Calm     52 % 0 mm 0.0 W/m2 CLR
00:14 -14.1 °C -18.6 °C 34808.1 hPa Calm     56 % 0 mm 0.0 W/m2 CLR
00:19 -14.1 °C -18.5 °C 34808.1 hPa Calm     57 % 0 mm 0.0 W/m2 CLR
00:24 -14.1 °C -18.5 °C 34808.1 hPa Calm     57 % 0 mm 0.0 W/m2 CLR
00:29 -14.1 °C -18.6 °C 34797.9 hPa Calm     56 % 0 mm 0.0 W/m2 CLR
00:34 -14.4 °C -18.9 °C 34808.1 hPa Calm     56 % 0 mm 0.0 W/m2 CLR
00:39 -14.4 °C -18.8 °C 34808.1 hPa Calm     57 % 0 mm 0.0 W/m2 CLR
00:44 -14.4 °C -19.1 °C 34808.1 hPa Calm     55 % 0 mm 0.0 W/m2 CLR
00:49 -14.4 °C -18.9 °C 34808.1 hPa Calm     56 % 0 mm 0.0 W/m2 CLR
00:54 -14.4 °C -19.1 °C 34797.9 hPa Calm     55 % 0 mm 0.0 W/m2 CLR
00:59 -14.4 °C -18.9 °C 34808.1 hPa Calm     56 % 0 mm 0.0 W/m2 CLR
01:04 -14.4 °C -18.8 °C 34808.1 hPa Calm     57 % 0 mm 0.0 W/m2 CLR
01:09 -14.4 °C -18.8 °C 34808.1 hPa Calm     57 % 0 mm 0.0 W/m2 CLR
01:14 -14.4 °C -18.7 °C 34797.9 hPa Calm     58 % 0 mm 0.0 W/m2 CLR
01:19 -14.4 °C -18.7 °C 34808.1 hPa Calm     58 % 0 mm 0.0 W/m2 CLR
01:24 -14.4 °C -18.8 °C 34808.1 hPa Calm     57 % 0 mm 0.0 W/m2 CLR
01:29 -14.4 °C -18.5 °C 34808.1 hPa Calm     59 % 0 mm 0.0 W/m2 CLR
01:34 -14.4 °C -18.7 °C 34808.1 hPa Calm     58 % 0 mm 0.0 W/m2 CLR
01:36 -14.4 °C -18.7 °C 34808.1 hPa Calm     58 % 0 mm 0.0 W/m2 CLR
01:41 -14.7 °C -19.1 °C 34808.1 hPa Calm     57 % 0 mm 0.0 W/m2 CLR
01:46 -14.7 °C -19.1 °C 34808.1 hPa Calm     57 % 0 mm 0.0 W/m2 CLR
01:56 -14.7 °C -19.2 °C 34808.1 hPa Calm     56 % 0 mm 0.0 W/m2 CLR
01:57 -14.7 °C -19.3 °C 34808.1 hPa Calm     55 % 0 mm 0.0 W/m2 CLR
02:02 -14.4 °C -19.1 °C 34808.1 hPa Calm     55 % 0 mm 0.0 W/m2 CLR
02:07 -14.4 °C -19.1 °C 34808.1 hPa Calm     55 % 0 mm 0.0 W/m2 CLR
02:12 -14.4 °C -19.1 °C 34808.1 hPa Calm     55 % 0 mm 0.0 W/m2 CLR
02:17 -14.1 °C -18.6 °C 34808.1 hPa Calm     56 % 0 mm 0.0 W/m2 CLR
02:22 -14.4 °C -18.7 °C 34808.1 hPa Calm     58 % 0 mm 0.0 W/m2 CLR
02:27 -14.4 °C -18.7 °C 34818.2 hPa Calm     58 % 0 mm 0.0 W/m2 CLR
02:32 -14.4 °C -18.7 °C 34808.1 hPa Calm     58 % 0 mm 0.0 W/m2 CLR
02:37 -14.4 °C -18.7 °C 34808.1 hPa Calm     58 % 0 mm 0.0 W/m2 CLR
02:42 -14.4 °C -18.5 °C 34808.1 hPa Calm     59 % 0 mm 0.0 W/m2 CLR
02:47 -14.4 °C -18.5 °C 34808.1 hPa Calm     59 % 0 mm 0.0 W/m2 CLR
02:52 -14.7 °C -18.8 °C 34808.1 hPa Calm     59 % 0 mm 0.0 W/m2 CLR
02:57 -14.7 °C -18.8 °C 34808.1 hPa Calm     59 % 0 mm 0.0 W/m2 CLR
03:02 -14.7 °C -18.7 °C 34808.1 hPa Calm     60 % 0 mm 0.0 W/m2 CLR
03:07 -15 °C -18.9 °C 34808.1 hPa Calm     60 % 0 mm 0.0 W/m2 CLR
03:12 -14.7 °C -18.7 °C 34808.1 hPa Calm     60 % 0 mm 0.0 W/m2 CLR
03:17 -14.7 °C -18.7 °C 34808.1 hPa Calm     60 % 0 mm 0.0 W/m2 CLR
03:22 -14.7 °C -18.6 °C 34808.1 hPa Calm     61 % 0 mm 0.0 W/m2 CLR
03:27 -15 °C -18.7 °C 34808.1 hPa Calm     62 % 0 mm 0.0 W/m2 CLR
03:32 -15 °C -18.7 °C 34808.1 hPa Calm     62 % 0 mm 0.0 W/m2 CLR
03:37 -15 °C -18.8 °C 34808.1 hPa Calm     61 % 0 mm 0.0 W/m2 CLR
03:42 -15 °C -18.8 °C 34808.1 hPa Calm     61 % 0 mm 0.0 W/m2 CLR
03:47 -15 °C -18.8 °C 34808.1 hPa Calm     61 % 0 mm 0.0 W/m2 CLR
03:52 -15 °C -18.8 °C 34808.1 hPa Calm     61 % 0 mm 0.0 W/m2 CLR
03:57 -14.7 °C -18.6 °C 34808.1 hPa Calm     61 % 0 mm 0.0 W/m2 CLR
04:02 -14.7 °C -18.4 °C 34808.1 hPa Calm     62 % 0 mm 0.0 W/m2 CLR
04:07 -15 °C -18.6 °C 34797.9 hPa Calm     63 % 0 mm 0.0 W/m2 CLR
04:12 -15 °C -18.5 °C 34797.9 hPa Calm     64 % 0 mm 0.0 W/m2 CLR
04:17 -15.3 °C -18.8 °C 34808.1 hPa Calm     64 % 0 mm 0.0 W/m2 CLR
04:22 -15 °C -18.5 °C 34808.1 hPa Calm     64 % 0 mm 0.0 W/m2 CLR
04:27 -15 °C -18.5 °C 34808.1 hPa Calm     64 % 0 mm 0.0 W/m2 CLR
04:32 -15 °C -18.4 °C 34808.1 hPa Calm     65 % 0 mm 0.0 W/m2 CLR
04:37 -14.7 °C -17.9 °C 34808.1 hPa Calm     66 % 0 mm 0.0 W/m2 CLR
04:42 -15 °C -18.2 °C 34808.1 hPa Calm     66 % 0 mm 0.0 W/m2 CLR
04:47 -15 °C -18.2 °C 34808.1 hPa Calm     66 % 0 mm 0.0 W/m2 CLR
04:52 -15 °C -18.2 °C 34808.1 hPa Calm     66 % 0 mm 0.0 W/m2 CLR
04:57 -15 °C -18.2 °C 34808.1 hPa Calm     66 % 0 mm 0.0 W/m2 CLR
05:02 -15 °C -18.4 °C 34808.1 hPa Calm     65 % 0 mm 0.0 W/m2 CLR
05:07 -15 °C -18.5 °C 34808.1 hPa Calm     64 % 0 mm 0.0 W/m2 CLR
05:13 -14.7 °C -18.3 °C 34808.1 hPa Calm     63 % 0 mm 0.0 W/m2 CLR
05:18 -15 °C -18.7 °C 34808.1 hPa Calm     62 % 0 mm 0.0 W/m2 CLR
05:21 -15 °C -18.8 °C 34808.1 hPa Calm     61 % 0 mm 0.0 W/m2 CLR
05:26 -15 °C -18.8 °C 34808.1 hPa Calm     61 % 0 mm 0.0 W/m2 CLR
05:27 -15 °C -18.8 °C 34808.1 hPa Calm     61 % 0 mm 0.0 W/m2 CLR
05:32 -15 °C -18.7 °C 34808.1 hPa Calm     62 % 0 mm 0.0 W/m2 CLR
05:37 -15 °C -18.7 °C 34808.1 hPa Calm     62 % 0 mm 0.0 W/m2 CLR
05:42 -14.7 °C -18.4 °C 34808.1 hPa Calm     62 % 0 mm 0.0 W/m2 CLR
05:47 -14.7 °C -18.6 °C 34808.1 hPa Calm     61 % 0 mm 0.0 W/m2 CLR
05:52 -14.7 °C -18.6 °C 34808.1 hPa Calm     61 % 0 mm 0.0 W/m2 CLR
05:57 -14.7 °C -18.6 °C 34808.1 hPa Calm     61 % 0 mm 0.0 W/m2 CLR
06:02 -15 °C -18.8 °C 34808.1 hPa Calm     61 % 0 mm 0.0 W/m2 CLR
06:07 -15.3 °C -19.1 °C 34808.1 hPa Calm     61 % 0 mm 0.0 W/m2 CLR
06:12 -15 °C -18.7 °C 34808.1 hPa Calm     62 % 0 mm 0.0 W/m2 CLR
06:17 -15 °C -18.8 °C 34808.1 hPa Calm     61 % 0 mm 0.0 W/m2 CLR
06:22 -15.3 °C -19.1 °C 34808.1 hPa Calm     61 % 0 mm 0.0 W/m2 CLR
06:27 -15.3 °C -19.1 °C 34808.1 hPa Calm     61 % 0 mm 0.0 W/m2 CLR
06:28 -15.3 °C -19.1 °C 34808.1 hPa Calm     61 % 0 mm 0.0 W/m2 CLR
06:33 -15.3 °C -19.3 °C 34808.1 hPa Calm     60 % 0 mm 0.0 W/m2 CLR
06:38 -15.3 °C -19.1 °C 34808.1 hPa Calm     61 % 0 mm 0.0 W/m2 CLR
06:43 -15.3 °C -19.1 °C 34808.1 hPa Calm     61 % 0 mm 0.0 W/m2 CLR
06:48 -15.3 °C -19.1 °C 34808.1 hPa Calm     61 % 0 mm 0.0 W/m2 CLR
06:53 -15.3 °C -19.1 °C 34808.1 hPa Calm     61 % 0 mm 0.0 W/m2 CLR
06:58 -15.3 °C -19.1 °C 34808.1 hPa Calm     61 % 0 mm 0.0 W/m2 CLR
07:03 -15.3 °C -19 °C 34808.1 hPa Calm     62 % 0 mm 0.0 W/m2 CLR
07:08 -15.3 °C -18.9 °C 34808.1 hPa Calm     63 % 0 mm 0.0 W/m2 CLR
07:13 -15.3 °C -18.9 °C 34808.1 hPa Calm     63 % 0 mm 0.0 W/m2 CLR
07:18 -15.3 °C -18.9 °C 34797.9 hPa Calm     63 % 0 mm 0.0 W/m2 CLR
07:23 -15.6 °C -19.2 °C 34797.9 hPa Calm     63 % 0 mm 0.0 W/m2 CLR
07:28 -15.6 °C -19.2 °C 34797.9 hPa Calm     63 % 0 mm 0.0 W/m2 CLR
07:33 -15.3 °C -18.9 °C 34808.1 hPa Calm     63 % 0 mm 0.0 W/m2 CLR
07:38 -15.3 °C -18.8 °C 34808.1 hPa Calm     64 % 0 mm 0.0 W/m2 CLR
07:43 -15.6 °C -19.1 °C 34808.1 hPa Calm     64 % 0 mm 0.0 W/m2 CLR
07:48 -15.3 °C -18.9 °C 34808.1 hPa Calm     63 % 0 mm 0.0 W/m2 CLR
07:53 -15.3 °C -18.9 °C 34808.1 hPa Calm     63 % 0 mm 0.0 W/m2 CLR
07:58 -15 °C -18.6 °C 34808.1 hPa Calm     63 % 0 mm 0.0 W/m2 CLR
08:03 -15.3 °C -18.8 °C 34808.1 hPa Calm     64 % 0 mm 0.0 W/m2 CLR
08:08 -15.3 °C -18.8 °C 34808.1 hPa Calm     64 % 0 mm 0.0 W/m2 CLR
08:13 -15 °C -18.6 °C 34808.1 hPa Calm     63 % 0 mm 0.0 W/m2 OVC
08:18 -15 °C -18.5 °C 34808.1 hPa Calm     64 % 0 mm 5.0 W/m2 OVC
08:23 -15.3 °C -18.9 °C 34808.1 hPa Calm     63 % 0 mm 7.0 W/m2 OVC
08:28 -15.3 °C -18.9 °C 34808.1 hPa Calm     63 % 0 mm 9.0 W/m2 BKN
08:33 -15.3 °C -18.9 °C 34808.1 hPa Calm     63 % 0 mm 11.0 W/m2 BKN
08:38 -15.3 °C -18.8 °C 34808.1 hPa Calm     64 % 0 mm 12.0 W/m2 BKN
08:43 -15.3 °C -18.9 °C 34808.1 hPa Calm     63 % 0 mm 14.0 W/m2 BKN
08:48 -15 °C -18.6 °C 34808.1 hPa Calm     63 % 0 mm 18.0 W/m2 BKN
08:53 -15 °C -18.8 °C 34808.1 hPa Calm     61 % 0 mm 25.0 W/m2 BKN
08:58 -15 °C -18.8 °C 34808.1 hPa Calm     61 % 0 mm 33.0 W/m2 BKN
09:03 -15 °C -18.8 °C 34808.1 hPa Calm     61 % 0 mm 49.0 W/m2 SCT
09:08 -14.7 °C -18.7 °C 34808.1 hPa Calm     60 % 0 mm 58.0 W/m2 SCT
09:13 -14.7 °C -18.9 °C 34818.2 hPa Calm     58 % 0 mm 76.0 W/m2 FEW
09:18 -14.7 °C -18.8 °C 34818.2 hPa Calm     59 % 0 mm 91.0 W/m2 CLR
09:23 -14.7 °C -19.1 °C 34818.2 hPa Calm     57 % 0 mm 98.0 W/m2 FEW
09:29 -14.7 °C -19.6 °C 34818.2 hPa Calm     53 % 0 mm 123.0 W/m2 CLR
09:34 -14.4 °C -19.3 °C 34818.2 hPa Calm     53 % 0 mm 107.0 W/m2 CLR
09:39 -14.1 °C -18.7 °C 34818.2 hPa Calm     55 % 0 mm 149.0 W/m2 CLR
09:44 -14.1 °C -19 °C 34818.2 hPa Calm     53 % 0 mm 169.0 W/m2 CLR
09:49 -13.8 °C -19.1 °C 34831.8 hPa Calm     51 % 0 mm 185.0 W/m2 CLR
09:54 -13.8 °C -19.3 °C 34818.2 hPa Calm     49 % 0 mm 214.0 W/m2 CLR
09:59 -13.4 °C -19.1 °C 34831.8 hPa Calm     49 % 0 mm 209.0 W/m2 CLR
10:09 -12.8 °C -18.7 °C 34831.8 hPa Calm     48 % 0 mm 265.0 W/m2 CLR
10:14 -12.8 °C -18.9 °C 34831.8 hPa Calm     46 % 0 mm 269.0 W/m2 CLR
10:19 -12.6 °C -18.8 °C 34831.8 hPa Calm     45 % 0 mm 288.0 W/m2 CLR
10:24 -12.6 °C -19 °C 34831.8 hPa Calm     44 % 0 mm 304.0 W/m2 CLR
10:29 -12.2 °C -18.7 °C 34831.8 hPa Calm     44 % 0 mm 297.0 W/m2 CLR
10:34 -11.9 °C -18.6 °C 34831.8 hPa Calm     43 % 0 mm 309.0 W/m2 CLR
10:39 -11.6 °C -18.3 °C 34831.8 hPa Calm     43 % 0 mm 329.0 W/m2 CLR
10:44 -11.3 °C -18.4 °C 34831.8 hPa Calm     41 % 0 mm 355.0 W/m2 CLR
10:49 -11 °C -18.3 °C 34831.8 hPa Calm     40 % 0 mm 369.0 W/m2 CLR
10:54 -10.7 °C -18.2 °C 34818.2 hPa Calm     39 % 0 mm 380.0 W/m2 CLR
10:59 -10.1 °C -17.7 °C 34818.2 hPa Calm     39 % 0 mm 392.0 W/m2 CLR
11:04 -9.8 °C -17.4 °C 34818.2 hPa Calm     39 % 0 mm 401.0 W/m2 CLR
11:09 -9.8 °C -17.8 °C 34818.2 hPa Calm     37 % 0 mm 415.0 W/m2 CLR
11:14 -9.4 °C -17.6 °C 34818.2 hPa Calm     37 % 0 mm 425.0 W/m2 CLR
11:19 -9.1 °C -17.7 °C 34818.2 hPa North 9 km/h 9 km/h 35 % 0 mm 436.0 W/m2 CLR
11:24 -8.8 °C -17.7 °C 34818.2 hPa NNW 9 km/h 9 km/h 34 % 0 mm 443.0 W/m2 CLR
11:29 -8.5 °C -17.4 °C 34818.2 hPa North 12.9 km/h 12.9 km/h 34 % 0 mm 455.0 W/m2 CLR
11:34 -8.5 °C -17.8 °C 34818.2 hPa NNW 9 km/h 9 km/h 32 % 0 mm 468.0 W/m2 CLR
11:39 -8.2 °C -17.3 °C 34818.2 hPa Calm     33 % 0 mm 478.0 W/m2 CLR
11:44 -7.9 °C -17.3 °C 34808.1 hPa NNW 9 km/h 9 km/h 32 % 0 mm 487.0 W/m2 CLR
11:49 -7.6 °C -17.3 °C 34808.1 hPa NW 9 km/h 9 km/h 31 % 0 mm 496.0 W/m2 CLR
11:54 -7.6 °C -17.6 °C 34808.1 hPa North 3.1 km/h   30 % 0 mm 504.0 W/m2 CLR
11:59 -7.3 °C -17 °C 34808.1 hPa Calm     31 % 0 mm 513.0 W/m2 CLR
12:04 -7 °C -17.3 °C 34808.1 hPa West 6 km/h 6 km/h 29 % 0 mm 520.0 W/m2 CLR
12:09 -7 °C -18.7 °C 34808.1 hPa SW 23.8 km/h 23.8 km/h 24 % 0 mm 531.0 W/m2 CLR
12:14 -6.7 °C -18.4 °C 34808.1 hPa SW 25.9 km/h 25.9 km/h 24 % 0 mm 538.0 W/m2 CLR
12:19 -6.3 °C -18.5 °C 34808.1 hPa WSW 15 km/h 15 km/h 23 % 0 mm 547.0 W/m2 CLR
12:24 -6.1 °C -18.2 °C 34808.1 hPa SW 17.9 km/h 17.9 km/h 23 % 0 mm 541.0 W/m2 CLR
12:29 -5.7 °C -18.3 °C 34797.9 hPa WSW 29.8 km/h 29.8 km/h 22 % 0 mm 547.0 W/m2 CLR
12:34 -5.7 °C -18.3 °C 34808.1 hPa SW 11.9 km/h 11.9 km/h 22 % 0 mm 564.0 W/m2 CLR
12:39 -5.7 °C -18.3 °C 34797.9 hPa SSW 11.9 km/h 11.9 km/h 22 % 0 mm 573.0 W/m2 CLR
12:44 -5.4 °C -18.1 °C 34797.9 hPa SW 29.8 km/h 29.8 km/h 22 % 0 mm 587.0 W/m2 CLR
12:49 -5.4 °C -18.4 °C 34797.9 hPa SSW 17.9 km/h 17.9 km/h 21 % 0 mm 570.0 W/m2 CLR
12:54 -5.4 °C -18.4 °C 34797.9 hPa WSW 20.9 km/h 20.9 km/h 21 % 0 mm 534.0 W/m2 CLR
12:59 -5.4 °C -18.1 °C 34797.9 hPa WSW 9 km/h 9 km/h 22 % 0 mm 578.0 W/m2 CLR
13:04 -5.4 °C -18.1 °C 34797.9 hPa WSW 20.8 km/h 20.8 km/h 22 % 0 mm 592.0 W/m2 CLR
13:09 -5.4 °C -18.4 °C 34784.4 hPa WSW 17.9 km/h 17.9 km/h 21 % 0 mm 598.0 W/m2 CLR
13:14 -5.1 °C -18.2 °C 34784.4 hPa Calm     21 % 0 mm 601.0 W/m2 CLR
13:19 -5.1 °C -18.9 °C 34784.4 hPa SW 9 km/h 9 km/h 19 % 0 mm 605.0 W/m2 CLR
13:24 -5.1 °C -18.9 °C 34784.4 hPa West 20.9 km/h 20.9 km/h 19 % 0 mm 601.0 W/m2 CLR
13:29 -5.1 °C -18.9 °C 34784.4 hPa SW 15 km/h 15 km/h 19 % 0 mm 610.0 W/m2 CLR
13:34 -5.1 °C -18.9 °C 34774.2 hPa West 11.9 km/h 11.9 km/h 19 % 0 mm 622.0 W/m2 CLR
13:39 -5.1 °C -18.9 °C 34774.2 hPa WNW 11.9 km/h 11.9 km/h 19 % 0 mm 606.0 W/m2 CLR
13:44 -5.1 °C -18.9 °C 34774.2 hPa WSW 17.9 km/h 17.9 km/h 19 % 0 mm 584.0 W/m2 CLR
13:49 -5.1 °C -18.9 °C 34774.2 hPa WSW 17.9 km/h 17.9 km/h 19 % 0 mm 628.0 W/m2 CLR
13:54 -5.1 °C -18.9 °C 34760.7 hPa WNW 10.3 km/h 10.3 km/h 19 % 0 mm 594.0 W/m2 CLR
13:59 -4.8 °C -19.1 °C 34760.7 hPa SSW 9 km/h 9 km/h 18 % 0 mm 517.0 W/m2 CLR
14:03 -4.5 °C -18.8 °C 34760.7 hPa West 10.3 km/h 10.3 km/h 18 % 0 mm 554.0 W/m2 CLR
14:08 -4.8 °C -18.7 °C 34750.5 hPa SW 9 km/h 9 km/h 19 % 0 mm 526.0 W/m2 CLR
14:13 -4.8 °C -18.7 °C 34750.5 hPa Calm     19 % 0 mm 540.0 W/m2 CLR
14:18 -4.5 °C -18 °C 34750.5 hPa SW 15 km/h 15 km/h 20 % 0 mm 584.0 W/m2 CLR
14:23 -4.5 °C -18 °C 34750.5 hPa SW 9 km/h 11.9 km/h 20 % 0 mm 506.0 W/m2 CLR
14:28 -4.5 °C -18.4 °C 34750.5 hPa SW 20.9 km/h 20.9 km/h 19 % 0 mm 512.0 W/m2 CLR
14:33 -4.5 °C -18.4 °C 34740.4 hPa SSW 11.9 km/h 11.9 km/h 19 % 0 mm 506.0 W/m2 CLR
14:38 -4.5 °C -18.4 °C 34740.4 hPa Calm     19 % 0 mm 468.0 W/m2 CLR
14:43 -4.2 °C -18.2 °C 34740.4 hPa WNW 15.6 km/h 15.6 km/h 19 % 0 mm 577.0 W/m2 CLR
14:48 -4.2 °C -18.2 °C 34740.4 hPa Calm     19 % 0 mm 587.0 W/m2 CLR
14:53 -4.5 °C -18 °C 34726.8 hPa WSW 9 km/h 9 km/h 20 % 0 mm 517.0 W/m2 CLR
14:58 -4.5 °C -18 °C 34726.8 hPa SSW 9 km/h 9 km/h 20 % 0 mm 552.0 W/m2 CLR
15:03 -4.5 °C -18.4 °C 34726.8 hPa WNW 11.9 km/h 11.9 km/h 19 % 0 mm 552.0 W/m2 CLR
15:08 -4.5 °C -18.4 °C 34726.8 hPa WSW 15 km/h 15 km/h 19 % 0 mm 531.0 W/m2 CLR
15:13 -4.5 °C -18.4 °C 34716.7 hPa WNW 6 km/h 6 km/h 19 % 0 mm 496.0 W/m2 CLR
15:18 -4.5 °C -18.4 °C 34716.7 hPa WNW 3.1 km/h 3.1 km/h 19 % 0 mm 552.0 W/m2 CLR
15:23 -4.5 °C -18.4 °C 34716.7 hPa NW 12.9 km/h 12.9 km/h 19 % 0 mm 531.0 W/m2 CLR
15:28 -4.5 °C -18 °C 34716.7 hPa WNW 17.9 km/h 17.9 km/h 20 % 0 mm 487.0 W/m2 CLR
15:33 -4.5 °C -18 °C 34716.7 hPa NNW 9 km/h   20 % 0 mm 483.0 W/m2 CLR
15:38 -4.5 °C -18 °C 34703.1 hPa NW 11.9 km/h 11.9 km/h 20 % 0 mm 418.0 W/m2 CLR
15:43 -4.5 °C -18 °C 34716.7 hPa WNW 9 km/h 9 km/h 20 % 0 mm 378.0 W/m2 CLR
15:48 -4.5 °C -18 °C 34703.1 hPa NW 11.9 km/h 11.9 km/h 20 % 0 mm 373.0 W/m2 CLR
15:53 -4.5 °C -17.7 °C 34703.1 hPa West 15 km/h 15 km/h 21 % 0 mm 360.0 W/m2 CLR
15:58 -4.5 °C -17.7 °C 34703.1 hPa NNW 9 km/h 9 km/h 21 % 0 mm 327.0 W/m2 CLR
16:03 -4.8 °C -17.9 °C 34703.1 hPa WNW 11.9 km/h 11.9 km/h 21 % 0 mm 406.0 W/m2 CLR
16:08 -4.8 °C -17.9 °C 34703.1 hPa WNW 20.9 km/h 20.9 km/h 21 % 0 mm 380.0 W/m2 CLR
16:13 -4.5 °C -17.3 °C 34703.1 hPa West 9 km/h   22 % 0 mm 439.0 W/m2 CLR
16:18 -4.5 °C -17.7 °C 34703.1 hPa NW 11.9 km/h 11.9 km/h 21 % 0 mm 431.0 W/m2 CLR
16:23 -4.5 °C -17.3 °C 34703.1 hPa WNW 11.9 km/h 11.9 km/h 22 % 0 mm 406.0 W/m2 CLR
16:28 -4.5 °C -17.3 °C 34703.1 hPa WNW 15 km/h 15 km/h 22 % 0 mm 345.0 W/m2 CLR
16:33 -4.5 °C -17.3 °C 34703.1 hPa West 9 km/h 9 km/h 22 % 0 mm 327.0 W/m2 CLR
16:38 -4.5 °C -17.3 °C 34703.1 hPa West 7.7 km/h 7.7 km/h 22 % 0 mm 401.0 W/m2 CLR
16:43 -4.5 °C -17.3 °C 34693 hPa WNW 9 km/h 9 km/h 22 % 0 mm 380.0 W/m2 CLR
16:48 -4.5 °C -16.9 °C 34693 hPa Calm     23 % 0 mm 320.0 W/m2 CLR
16:53 -4.5 °C -16.9 °C 34693 hPa Calm     23 % 0 mm 260.0 W/m2 CLR
16:58 -4.8 °C -16.6 °C 34693 hPa WNW 6 km/h 6 km/h 25 % 0 mm 271.0 W/m2 CLR
17:03 -4.8 °C -16.3 °C 34693 hPa Calm     26 % 0 mm 271.0 W/m2 CLR
17:08 -4.8 °C -16.6 °C 34693 hPa WSW 9 km/h 9 km/h 25 % 0 mm 288.0 W/m2 CLR
17:13 -4.8 °C -17.2 °C 34693 hPa Calm     23 % 0 mm 274.0 W/m2 CLR
17:18 -4.8 °C -16.9 °C 34693 hPa Calm     24 % 0 mm 214.0 W/m2 CLR
17:23 -4.8 °C -16.6 °C 34693 hPa Calm     25 % 0 mm 193.0 W/m2 CLR
17:28 -5.1 °C -17.1 °C 34693 hPa Calm     24 % 0 mm 193.0 W/m2 CLR
17:33 -5.1 °C -16.8 °C 34693 hPa NNW 3.1 km/h   25 % 0 mm 179.0 W/m2 CLR
17:34 -5.1 °C -17.1 °C 34693 hPa Calm     24 % 0 mm 171.0 W/m2 CLR
17:39 -5.1 °C -17.4 °C 34693 hPa Calm     23 % 0 mm 155.0 W/m2 CLR
17:44 -5.4 °C -17.7 °C 34693 hPa Calm     23 % 0 mm 148.0 W/m2 CLR
17:49 -5.4 °C -17.4 °C 34693 hPa Calm     24 % 0 mm 116.0 W/m2 CLR
17:54 -5.7 °C -17.7 °C 34693 hPa Calm     24 % 0 mm 102.0 W/m2 CLR
17:59 -6.1 °C -17.6 °C 34693 hPa Calm     25 % 0 mm 84.0 W/m2 CLR
18:04 -6.3 °C -17.9 °C 34693 hPa Calm     25 % 0 mm 104.0 W/m2 CLR
18:09 -7 °C -19.1 °C 34693 hPa Calm     23 % 0 mm 83.0 W/m2 FEW
18:14 -7.3 °C -19.3 °C 34693 hPa Calm     23 % 0 mm 81.0 W/m2 FEW
18:19 -7.6 °C -19.2 °C 34693 hPa Calm     24 % 0 mm 76.0 W/m2 FEW
18:24 -7.6 °C -18.9 °C 34693 hPa Calm     25 % 0 mm 63.0 W/m2 FEW
18:29 -7.9 °C -19.2 °C 34693 hPa Calm     25 % 0 mm 54.0 W/m2 SCT
18:34 -8.2 °C -19.4 °C 34693 hPa Calm     25 % 0 mm 56.0 W/m2 SCT
18:39 -8.2 °C -19.8 °C 34693 hPa Calm     24 % 0 mm 39.0 W/m2 BKN
18:44 -8.5 °C -20 °C 34703.1 hPa Calm     24 % 0 mm 28.0 W/m2 BKN
18:49 -8.8 °C -20.3 °C 34703.1 hPa Calm     24 % 0 mm 23.0 W/m2 BKN
18:54 -9.1 °C -20.2 °C 34703.1 hPa Calm     25 % 0 mm 18.0 W/m2 BKN
18:59 -9.4 °C -20.2 °C 34703.1 hPa Calm     26 % 0 mm 12.0 W/m2 BKN
19:04 -9.4 °C -20.2 °C 34703.1 hPa Calm     26 % 0 mm 11.0 W/m2 BKN
19:09 -9.4 °C -19.9 °C 34703.1 hPa Calm     27 % 0 mm 9.0 W/m2 OVC
19:14 -9.4 °C -19.7 °C 34703.1 hPa Calm     28 % 0 mm 7.0 W/m2 OVC
19:19 -9.4 °C -19.4 °C 34703.1 hPa Calm     29 % 0 mm 0.0 W/m2 CLR
19:25 -9.4 °C -19.4 °C 34703.1 hPa Calm     29 % 0 mm 0.0 W/m2 CLR
19:30 -9.4 °C -19.4 °C 34703.1 hPa Calm     29 % 0 mm 0.0 W/m2 CLR
19:35 -9.4 °C -18.9 °C 34703.1 hPa Calm     31 % 0 mm 0.0 W/m2 CLR
19:40 -9.8 °C -18.4 °C 34703.1 hPa Calm     34 % 0 mm 0.0 W/m2 CLR
19:45 -9.8 °C -18.4 °C 34716.7 hPa Calm     34 % 0 mm 0.0 W/m2 CLR
19:50 -10.1 °C -18.5 °C 34716.7 hPa Calm     35 % 0 mm 0.0 W/m2 CLR
19:55 -10.1 °C -18.5 °C 34716.7 hPa Calm     35 % 0 mm 0.0 W/m2 CLR
20:00 -10.4 °C -18.6 °C 34716.7 hPa Calm     36 % 0 mm 0.0 W/m2 CLR
20:05 -10.4 °C -18.6 °C 34716.7 hPa Calm     36 % 0 mm 0.0 W/m2 CLR
20:10 -10.7 °C -18.7 °C 34716.7 hPa Calm     37 % 0 mm 0.0 W/m2 CLR
20:15 -10.7 °C -18.7 °C 34716.7 hPa Calm     37 % 0 mm 0.0 W/m2 CLR
20:20 -11 °C -18.5 °C 34716.7 hPa Calm     39 % 0 mm 0.0 W/m2 CLR
20:25 -11 °C -18.3 °C 34716.7 hPa Calm     40 % 0 mm 0.0 W/m2 CLR
20:26 -11 °C -18.3 °C 34716.7 hPa Calm     40 % 0 mm 0.0 W/m2 CLR
20:30 -11 °C -18.2 °C 34716.7 hPa Calm     41 % 0 mm 0.0 W/m2 CLR
20:35 -11.3 °C -18.2 °C 34716.7 hPa Calm     42 % 0 mm 0.0 W/m2 CLR
20:40 -11.3 °C -18.1 °C 34726.8 hPa Calm     43 % 0 mm 0.0 W/m2 CLR
20:45 -11.6 °C -18.3 °C 34726.8 hPa Calm     43 % 0 mm 0.0 W/m2 CLR
20:50 -11.9 °C -18.4 °C 34726.8 hPa Calm     44 % 0 mm 0.0 W/m2 CLR
20:55 -11.9 °C -18.4 °C 34726.8 hPa Calm     44 % 0 mm 0.0 W/m2 CLR
21:00 -12.2 °C -18.7 °C 34726.8 hPa Calm     44 % 0 mm 0.0 W/m2 CLR
21:05 -12.2 °C -18.7 °C 34726.8 hPa Calm     44 % 0 mm 0.0 W/m2 CLR
21:10 -12.6 °C -18.8 °C 34726.8 hPa Calm     45 % 0 mm 0.0 W/m2 CLR
21:15 -12.6 °C -18.8 °C 34726.8 hPa Calm     45 % 0 mm 0.0 W/m2 CLR
21:20 -12.6 °C -18.7 °C 34726.8 hPa Calm     46 % 0 mm 0.0 W/m2 CLR
21:25 -12.6 °C -18.5 °C 34726.8 hPa Calm     47 % 0 mm 0.0 W/m2 CLR
21:30 -12.8 °C -18.8 °C 34726.8 hPa Calm     47 % 0 mm 0.0 W/m2 CLR
21:35 -12.8 °C -18.8 °C 34726.8 hPa Calm     47 % 0 mm 0.0 W/m2 CLR
21:40 -12.8 °C -18.8 °C 34726.8 hPa Calm     47 % 0 mm 0.0 W/m2 CLR
21:45 -13.2 °C -19.1 °C 34726.8 hPa Calm     47 % 0 mm 0.0 W/m2 CLR
21:50 -13.2 °C -19.1 °C 34726.8 hPa Calm     47 % 0 mm 0.0 W/m2 CLR
21:55 -13.2 °C -18.9 °C 34726.8 hPa Calm     48 % 0 mm 0.0 W/m2 CLR
22:00 -13.2 °C -18.9 °C 34726.8 hPa Calm     48 % 0 mm 0.0 W/m2 CLR
22:05 -13.2 °C -18.8 °C 34740.4 hPa Calm     49 % 0 mm 0.0 W/m2 CLR
22:10 -13.2 °C -18.6 °C 34740.4 hPa Calm     50 % 0 mm 0.0 W/m2 CLR
22:15 -13.2 °C -18.4 °C 34740.4 hPa Calm     51 % 0 mm 0.0 W/m2 CLR
22:20 -13.2 °C -18.4 °C 34740.4 hPa Calm     51 % 0 mm 0.0 W/m2 CLR
22:25 -12.8 °C -18.2 °C 34740.4 hPa Calm     51 % 0 mm 0.0 W/m2 CLR
22:30 -12.2 °C -17.4 °C 34740.4 hPa Calm     52 % 0 mm 0.0 W/m2 CLR
22:35 -12.2 °C -17.4 °C 34740.4 hPa Calm     52 % 0 mm 0.0 W/m2 CLR
22:40 -12.6 °C -17.7 °C 34740.4 hPa Calm     52 % 0 mm 0.0 W/m2 CLR
22:45 -12.8 °C -17.9 °C 34740.4 hPa Calm     53 % 0 mm 0.0 W/m2 CLR
22:51 -12.8 °C -17.9 °C 34740.4 hPa Calm     53 % 0 mm 0.0 W/m2 CLR
22:56 -13.2 °C -18 °C 34740.4 hPa Calm     54 % 0 mm 0.0 W/m2 CLR
23:01 -13.2 °C -18 °C 34740.4 hPa Calm     54 % 0 mm 0.0 W/m2 CLR
23:06 -13.2 °C -17.9 °C 34740.4 hPa Calm     55 % 0 mm 0.0 W/m2 CLR
23:11 -12.8 °C -17.6 °C 34750.5 hPa Calm     55 % 0 mm 0.0 W/m2 CLR
23:16 -12.8 °C -17.6 °C 34750.5 hPa Calm     55 % 0 mm 0.0 W/m2 CLR
23:21 -12.8 °C -17.6 °C 34750.5 hPa Calm     55 % 0 mm 0.0 W/m2 CLR
23:26 -12.8 °C -17.4 °C 34750.5 hPa Calm     56 % 0 mm 0.0 W/m2 CLR
23:31 -13.2 °C -17.7 °C 34750.5 hPa Calm     56 % 0 mm 0.0 W/m2 CLR
23:36 -13.2 °C -17.7 °C 34750.5 hPa Calm     56 % 0 mm 0.0 W/m2 CLR
23:41 -12.8 °C -17.4 °C 34750.5 hPa Calm     56 % 0 mm 0.0 W/m2 CLR
23:46 -12.8 °C -17.3 °C 34750.5 hPa Calm     57 % 0 mm 0.0 W/m2 CLR
23:51 -12.8 °C -17.3 °C 34760.7 hPa Calm     57 % 0 mm 0.0 W/m2 CLR
23:56 -13.2 °C -17.6 °C 34750.5 hPa Calm     57 % 0 mm 0.0 W/m2 CLR
Lo Temps de Massalio
Compliments of Weather Underground - 1.25 mb